Bagram Air Base
OAIX : now visible

Airfield :











YOU CAN JOIN US ON...

 
LOGIN :

Register | Disclaimer

   EN    FR    IT 

 









Legend :    VFR   Marginal VFR   IFR   Intensive IFR   Very Intensive IFR
Visi :
Ceiling :
>= 8 km
>= 3000ft
5 to 8 km
1000 to 3000 ft
1500m to 5 km
500 to 1000 ft
800 to 1500m
200 to 500 ft
< 800m
< 200 ft
Symbols :   Thunderstorms  Fog  Heavy snow  Heavy precipitations  Wind > 20 kt






- Airport Elevation : 4895 ft


OAIX - Bagram Air Base

CURRENT METAR :
  • 100958Z 09004KT 9999 FEW080 FEW120 SCT200 21/01 A3012 RMK AO2A SLP145 T02070007 $

EXPIRED METARs :
  • 100858Z 26004KT 9999 FEW080 FEW120 BKN200 19/04 A3014 RMK AO2A SLP152 T01900042 57015 $
  • 100758Z 09003KT 9999 FEW080 FEW120 BKN200 18/03 A3017 RMK AO2A SLP160 T01790032 $

TAF AMD TAF OAIX
Valid from the 10 at 03:00 until the 11 at 05:00 UTC


100302Z 1003/1105 VRB06KT 8000 HZ FEW080 FEW180 QNH3014INS
BECMG 1003/1004 10009KT 9999 NSW FEW060 SCT200 QNH3016INS
BECMG 1005/1006 11009KT 9999 SCT060 SCT180 QNH3009INS
BECMG 1010/1011 12009KT 9999 SCT060 SCT100 QNH3009INS
BECMG 1013/1014 VRB06KT 9999 VCSH SCT060 BKN100 611002 QNH3011INS
BECMG 1017/1018 22006KT 9999 NSW SCT050 BKN080 620804 QNH3017INS
BECMG 1023/1024 VRB06KT 9999 SCT050 SCT160 QNH3017INS
TEMPO 1102/1104 9000 HZ TX21/1011Z TN09/1003Z



MET'MAP, your aeronautical weather chart ! - Copyright ORBIFLY December 2007 - Disclaimer

ORBIFLY MET'MAP TEAM :

Programming & Development : Alexandra Zaïnal
Concept & original design : Baudouin d'Aumeries
Assistance for programming : Marc-Olivier Méhu
Technical & hardware support : Manuel Goepfert

Contact : metmap@orbifly.com




SOURCES & CREDITS :

   NOAA       Earth
Advisory